sensor_id;sensor_type;location;lat;lon;timestamp;P1;durP1;ratioP1;P2;durP2;ratioP2
57101;SDS011;42982;54.558;18.508;2024-03-23T19:22:30;39.80;;;21.30;;
57101;SDS011;42982;54.558;18.508;2024-03-23T19:23:54;35.75;;;19.13;;
57101;SDS011;42982;54.558;18.508;2024-03-23T19:25:16;37.08;;;19.02;;
57101;SDS011;42982;54.558;18.508;2024-03-23T19:26:46;42.05;;;19.70;;
57101;SDS011;42982;54.558;18.508;2024-03-23T19:28:10;37.75;;;18.45;;
57101;SDS011;42982;54.558;18.508;2024-03-23T19:29:36;48.20;;;20.30;;
57101;SDS011;42982;54.558;18.508;2024-03-23T19:31:06;50.08;;;18.73;;
57101;SDS011;42982;54.558;18.508;2024-03-23T19:32:29;48.20;;;19.40;;
57101;SDS011;42982;54.558;18.508;2024-03-23T19:33:50;101.90;;;28.52;;
57101;SDS011;42982;54.558;18.508;2024-03-23T19:35:10;97.47;;;29.92;;
57101;SDS011;42982;54.558;18.508;2024-03-23T19:36:38;70.25;;;22.23;;
57101;SDS011;42982;54.558;18.508;2024-03-23T19:38:01;76.57;;;24.13;;
57101;SDS011;42982;54.558;18.508;2024-03-23T19:39:27;82.70;;;23.05;;
57101;SDS011;42982;54.558;18.508;2024-03-23T19:40:53;68.53;;;21.52;;
57101;SDS011;42982;54.558;18.508;2024-03-23T19:42:35;74.68;;;21.05;;
57101;SDS011;42982;54.558;18.508;2024-03-23T19:43:59;64.70;;;20.20;;
57101;SDS011;42982;54.558;18.508;2024-03-23T19:45:21;58.63;;;19.23;;
57101;SDS011;42982;54.558;18.508;2024-03-23T19:46:43;55.97;;;17.25;;
57101;SDS011;42982;54.558;18.508;2024-03-23T19:48:04;59.17;;;17.33;;
57101;SDS011;42982;54.558;18.508;2024-03-23T19:49:30;54.65;;;16.70;;
57101;SDS011;42982;54.558;18.508;2024-03-23T19:50:59;56.95;;;18.15;;
57101;SDS011;42982;54.558;18.508;2024-03-23T19:52:22;59.65;;;18.42;;
57101;SDS011;42982;54.558;18.508;2024-03-23T19:53:50;64.72;;;18.48;;
57101;SDS011;42982;54.558;18.508;2024-03-23T19:55:12;54.78;;;17.92;;
57101;SDS011;42982;54.558;18.508;2024-03-23T19:56:35;50.95;;;15.93;;
57101;SDS011;42982;54.558;18.508;2024-03-23T19:57:56;50.00;;;16.45;;
57101;SDS011;42982;54.558;18.508;2024-03-23T19:59:19;54.65;;;17.77;;
57101;SDS011;42982;54.558;18.508;2024-03-23T20:00:47;55.95;;;17.70;;
57101;SDS011;42982;54.558;18.508;2024-03-23T20:02:13;50.78;;;16.17;;
57101;SDS011;42982;54.558;18.508;2024-03-23T20:03:45;53.05;;;15.85;;
57101;SDS011;42982;54.558;18.508;2024-03-23T20:05:08;48.30;;;15.77;;
57101;SDS011;42982;54.558;18.508;2024-03-23T20:06:34;49.20;;;15.45;;
57101;SDS011;42982;54.558;18.508;2024-03-23T20:07:54;55.65;;;17.60;;
57101;SDS011;42982;54.558;18.508;2024-03-23T20:09:18;52.45;;;16.10;;
57101;SDS011;42982;54.558;18.508;2024-03-23T20:10:45;54.13;;;17.05;;
57101;SDS011;42982;54.558;18.508;2024-03-23T20:12:10;63.60;;;16.67;;
57101;SDS011;42982;54.558;18.508;2024-03-23T20:13:36;63.28;;;18.80;;
57101;SDS011;42982;54.558;18.508;2024-03-23T20:14:57;61.63;;;17.65;;
57101;SDS011;42982;54.558;18.508;2024-03-23T20:16:21;64.63;;;18.35;;
57101;SDS011;42982;54.558;18.508;2024-03-23T20:17:42;58.42;;;17.75;;
57101;SDS011;42982;54.558;18.508;2024-03-23T20:19:05;66.70;;;18.27;;
57101;SDS011;42982;54.558;18.508;2024-03-23T20:20:28;68.15;;;19.63;;
57101;SDS011;42982;54.558;18.508;2024-03-23T20:21:54;85.55;;;23.35;;
57101;SDS011;42982;54.558;18.508;2024-03-23T20:23:15;85.05;;;21.73;;
57101;SDS011;42982;54.558;18.508;2024-03-23T20:24:38;84.97;;;22.50;;
57101;SDS011;42982;54.558;18.508;2024-03-23T20:26:02;93.80;;;23.60;;
57101;SDS011;42982;54.558;18.508;2024-03-23T20:27:25;96.40;;;22.55;;
57101;SDS011;42982;54.558;18.508;2024-03-23T20:28:51;94.18;;;25.65;;
57101;SDS011;42982;54.558;18.508;2024-03-23T20:30:17;107.35;;;24.75;;
57101;SDS011;42982;54.558;18.508;2024-03-23T20:31:41;117.97;;;26.42;;
57101;SDS011;42982;54.558;18.508;2024-03-23T20:33:01;136.48;;;28.42;;
57101;SDS011;42982;54.558;18.508;2024-03-23T20:34:33;133.30;;;29.88;;
57101;SDS011;42982;54.558;18.508;2024-03-23T20:36:04;140.25;;;30.25;;
57101;SDS011;42982;54.558;18.508;2024-03-23T20:37:30;137.73;;;28.02;;
57101;SDS011;42982;54.558;18.508;2024-03-23T20:38:56;134.88;;;30.00;;
57101;SDS011;42982;54.558;18.508;2024-03-23T20:40:16;119.38;;;28.20;;
57101;SDS011;42982;54.558;18.508;2024-03-23T20:41:37;163.48;;;33.30;;
57101;SDS011;42982;54.558;18.508;2024-03-23T20:43:05;160.88;;;34.20;;
57101;SDS011;42982;54.558;18.508;2024-03-23T20:44:28;163.77;;;35.05;;
57101;SDS011;42982;54.558;18.508;2024-03-23T20:47:29;183.25;;;36.35;;
57101;SDS011;42982;54.558;18.508;2024-03-23T20:48:49;172.75;;;35.28;;
57101;SDS011;42982;54.558;18.508;2024-03-23T20:50:13;203.57;;;36.00;;
57101;SDS011;42982;54.558;18.508;2024-03-23T20:51:40;194.75;;;38.75;;
57101;SDS011;42982;54.558;18.508;2024-03-23T20:53:05;190.95;;;38.08;;
57101;SDS011;42982;54.558;18.508;2024-03-23T20:54:26;182.07;;;35.85;;
57101;SDS011;42982;54.558;18.508;2024-03-23T20:56:39;182.93;;;35.70;;
57101;SDS011;42982;54.558;18.508;2024-03-23T20:58:01;179.93;;;36.50;;
57101;SDS011;42982;54.558;18.508;2024-03-23T20:59:23;191.48;;;36.40;;
57101;SDS011;42982;54.558;18.508;2024-03-23T21:00:44;188.52;;;37.88;;
57101;SDS011;42982;54.558;18.508;2024-03-23T21:02:05;210.43;;;40.40;;
57101;SDS011;42982;54.558;18.508;2024-03-23T21:03:33;203.88;;;40.65;;
57101;SDS011;42982;54.558;18.508;2024-03-23T21:04:54;209.68;;;39.47;;
57101;SDS011;42982;54.558;18.508;2024-03-23T21:06:20;204.05;;;39.63;;
57101;SDS011;42982;54.558;18.508;2024-03-23T21:07:41;224.48;;;44.22;;
57101;SDS011;42982;54.558;18.508;2024-03-23T21:09:01;209.23;;;38.97;;
57101;SDS011;42982;54.558;18.508;2024-03-23T21:10:29;222.43;;;42.60;;
57101;SDS011;42982;54.558;18.508;2024-03-23T21:11:50;191.48;;;39.90;;
57101;SDS011;42982;54.558;18.508;2024-03-23T21:13:10;194.77;;;37.30;;
57101;SDS011;42982;54.558;18.508;2024-03-23T21:14:37;207.10;;;41.35;;
57101;SDS011;42982;54.558;18.508;2024-03-23T21:16:00;184.57;;;39.15;;
57101;SDS011;42982;54.558;18.508;2024-03-23T21:17:23;182.68;;;38.22;;
57101;SDS011;42982;54.558;18.508;2024-03-23T21:18:47;237.50;;;47.65;;
57101;SDS011;42982;54.558;18.508;2024-03-23T21:20:13;313.35;;;69.15;;
57101;SDS011;42982;54.558;18.508;2024-03-23T21:21:33;344.67;;;79.03;;
57101;SDS011;42982;54.558;18.508;2024-03-23T21:22:58;377.17;;;92.35;;
57101;SDS011;42982;54.558;18.508;2024-03-23T21:24:24;399.17;;;99.25;;
57101;SDS011;42982;54.558;18.508;2024-03-23T21:25:53;422.45;;;112.65;;
57101;SDS011;42982;54.558;18.508;2024-03-23T21:27:23;424.63;;;114.53;;
57101;SDS011;42982;54.558;18.508;2024-03-23T21:28:51;437.95;;;111.75;;
57101;SDS011;42982;54.558;18.508;2024-03-23T21:30:14;413.27;;;112.57;;
57101;SDS011;42982;54.558;18.508;2024-03-23T21:31:42;417.92;;;107.85;;
57101;SDS011;42982;54.558;18.508;2024-03-23T21:33:03;377.27;;;100.60;;
57101;SDS011;42982;54.558;18.508;2024-03-23T21:34:24;375.98;;;103.05;;
57101;SDS011;42982;54.558;18.508;2024-03-23T21:35:54;369.00;;;97.30;;
57101;SDS011;42982;54.558;18.508;2024-03-23T21:37:23;365.33;;;97.00;;
57101;SDS011;42982;54.558;18.508;2024-03-23T21:38:49;339.92;;;95.05;;
57101;SDS011;42982;54.558;18.508;2024-03-23T21:40:11;350.33;;;94.55;;
57101;SDS011;42982;54.558;18.508;2024-03-23T21:41:32;344.00;;;89.90;;
57101;SDS011;42982;54.558;18.508;2024-03-23T21:42:56;320.27;;;87.85;;
57101;SDS011;42982;54.558;18.508;2024-03-23T21:44:23;330.38;;;86.13;;
57101;SDS011;42982;54.558;18.508;2024-03-23T21:46:02;311.80;;;85.90;;
57101;SDS011;42982;54.558;18.508;2024-03-23T21:47:35;299.15;;;79.22;;
57101;SDS011;42982;54.558;18.508;2024-03-23T21:48:55;285.08;;;76.63;;
57101;SDS011;42982;54.558;18.508;2024-03-23T21:50:16;273.27;;;76.78;;
57101;SDS011;42982;54.558;18.508;2024-03-23T21:51:42;283.33;;;76.45;;
57101;SDS011;42982;54.558;18.508;2024-03-23T21:53:12;279.42;;;73.60;;
57101;SDS011;42982;54.558;18.508;2024-03-23T21:54:32;276.63;;;73.63;;
57101;SDS011;42982;54.558;18.508;2024-03-23T21:55:56;248.05;;;69.30;;
57101;SDS011;42982;54.558;18.508;2024-03-23T21:57:26;273.55;;;69.57;;
57101;SDS011;42982;54.558;18.508;2024-03-23T21:58:53;246.30;;;68.40;;
57101;SDS011;42982;54.558;18.508;2024-03-23T22:00:19;212.60;;;66.80;;
57101;SDS011;42982;54.558;18.508;2024-03-23T22:01:49;232.70;;;65.13;;
57101;SDS011;42982;54.558;18.508;2024-03-23T22:03:16;199.43;;;57.80;;
57101;SDS011;42982;54.558;18.508;2024-03-23T22:04:36;212.13;;;61.95;;
57101;SDS011;42982;54.558;18.508;2024-03-23T22:06:05;208.65;;;58.30;;
57101;SDS011;42982;54.558;18.508;2024-03-23T22:07:28;194.35;;;55.33;;
57101;SDS011;42982;54.558;18.508;2024-03-23T22:08:57;168.68;;;50.40;;
57101;SDS011;42982;54.558;18.508;2024-03-23T22:10:25;185.68;;;50.20;;
57101;SDS011;42982;54.558;18.508;2024-03-23T22:11:48;169.43;;;47.80;;
57101;SDS011;42982;54.558;18.508;2024-03-23T22:13:14;155.48;;;46.15;;
57101;SDS011;42982;54.558;18.508;2024-03-23T22:14:37;137.65;;;40.80;;
57101;SDS011;42982;54.558;18.508;2024-03-23T22:16:02;135.35;;;39.63;;
57101;SDS011;42982;54.558;18.508;2024-03-23T22:17:32;144.25;;;39.42;;
57101;SDS011;42982;54.558;18.508;2024-03-23T22:18:55;128.30;;;38.28;;
57101;SDS011;42982;54.558;18.508;2024-03-23T22:20:16;135.13;;;37.00;;
57101;SDS011;42982;54.558;18.508;2024-03-23T22:21:42;122.35;;;36.88;;
57101;SDS011;42982;54.558;18.508;2024-03-23T22:23:06;124.80;;;36.90;;
57101;SDS011;42982;54.558;18.508;2024-03-23T22:24:26;120.40;;;35.10;;
57101;SDS011;42982;54.558;18.508;2024-03-23T22:25:49;126.07;;;35.90;;
57101;SDS011;42982;54.558;18.508;2024-03-23T22:27:14;125.13;;;35.45;;
57101;SDS011;42982;54.558;18.508;2024-03-23T22:28:40;107.65;;;34.75;;
57101;SDS011;42982;54.558;18.508;2024-03-23T22:30:11;116.38;;;34.35;;
57101;SDS011;42982;54.558;18.508;2024-03-23T22:31:35;109.15;;;33.22;;
57101;SDS011;42982;54.558;18.508;2024-03-23T22:32:56;99.15;;;33.15;;
57101;SDS011;42982;54.558;18.508;2024-03-23T22:34:18;96.10;;;30.85;;
57101;SDS011;42982;54.558;18.508;2024-03-23T22:35:49;103.95;;;31.65;;
57101;SDS011;42982;54.558;18.508;2024-03-23T22:37:20;106.22;;;30.20;;
57101;SDS011;42982;54.558;18.508;2024-03-23T22:38:46;91.53;;;28.02;;
57101;SDS011;42982;54.558;18.508;2024-03-23T22:40:12;95.35;;;28.50;;
57101;SDS011;42982;54.558;18.508;2024-03-23T22:41:32;95.13;;;29.00;;
57101;SDS011;42982;54.558;18.508;2024-03-23T22:42:55;86.55;;;28.00;;
57101;SDS011;42982;54.558;18.508;2024-03-23T22:44:18;81.22;;;27.23;;
57101;SDS011;42982;54.558;18.508;2024-03-23T22:45:41;87.15;;;27.67;;
57101;SDS011;42982;54.558;18.508;2024-03-23T22:47:11;81.65;;;25.23;;
57101;SDS011;42982;54.558;18.508;2024-03-23T22:48:37;81.57;;;26.23;;
57101;SDS011;42982;54.558;18.508;2024-03-23T22:50:02;79.13;;;27.23;;
57101;SDS011;42982;54.558;18.508;2024-03-23T22:51:30;86.18;;;26.35;;
57101;SDS011;42982;54.558;18.508;2024-03-23T22:52:53;78.45;;;25.60;;
57101;SDS011;42982;54.558;18.508;2024-03-23T22:54:21;76.25;;;24.20;;
57101;SDS011;42982;54.558;18.508;2024-03-23T22:55:45;81.60;;;26.25;;
57101;SDS011;42982;54.558;18.508;2024-03-23T22:57:14;78.95;;;23.67;;
57101;SDS011;42982;54.558;18.508;2024-03-23T22:58:36;68.20;;;24.75;;
57101;SDS011;42982;54.558;18.508;2024-03-23T23:00:01;66.25;;;22.77;;
57101;SDS011;42982;54.558;18.508;2024-03-23T23:01:29;66.57;;;22.75;;
57101;SDS011;42982;54.558;18.508;2024-03-23T23:02:50;64.40;;;21.30;;
57101;SDS011;42982;54.558;18.508;2024-03-23T23:04:16;67.50;;;22.35;;
57101;SDS011;42982;54.558;18.508;2024-03-23T23:05:56;69.50;;;22.90;;
57101;SDS011;42982;54.558;18.508;2024-03-23T23:07:23;70.85;;;22.63;;
57101;SDS011;42982;54.558;18.508;2024-03-23T23:08:48;64.43;;;21.13;;
57101;SDS011;42982;54.558;18.508;2024-03-23T23:10:17;62.35;;;21.88;;
57101;SDS011;42982;54.558;18.508;2024-03-23T23:11:36;67.80;;;20.90;;
57101;SDS011;42982;54.558;18.508;2024-03-23T23:12:58;57.40;;;19.40;;
57101;SDS011;42982;54.558;18.508;2024-03-23T23:14:21;63.38;;;20.10;;
57101;SDS011;42982;54.558;18.508;2024-03-23T23:15:46;57.95;;;18.55;;
57101;SDS011;42982;54.558;18.508;2024-03-23T23:17:06;50.70;;;18.08;;
57101;SDS011;42982;54.558;18.508;2024-03-23T23:18:31;59.10;;;20.20;;
57101;SDS011;42982;54.558;18.508;2024-03-23T23:19:56;59.17;;;19.08;;
57101;SDS011;42982;54.558;18.508;2024-03-23T23:21:17;48.42;;;15.98;;
57101;SDS011;42982;54.558;18.508;2024-03-23T23:22:43;42.03;;;15.98;;
57101;SDS011;42982;54.558;18.508;2024-03-23T23:24:07;40.22;;;14.45;;
57101;SDS011;42982;54.558;18.508;2024-03-23T23:25:33;40.00;;;13.88;;
57101;SDS011;42982;54.558;18.508;2024-03-23T23:26:58;36.22;;;13.25;;
57101;SDS011;42982;54.558;18.508;2024-03-23T23:28:21;32.47;;;12.48;;
57101;SDS011;42982;54.558;18.508;2024-03-23T23:29:44;34.83;;;12.23;;
57101;SDS011;42982;54.558;18.508;2024-03-23T23:31:08;33.20;;;11.88;;
57101;SDS011;42982;54.558;18.508;2024-03-23T23:32:28;32.75;;;11.90;;
57101;SDS011;42982;54.558;18.508;2024-03-23T23:34:00;33.15;;;11.23;;
57101;SDS011;42982;54.558;18.508;2024-03-23T23:35:29;28.20;;;10.85;;
57101;SDS011;42982;54.558;18.508;2024-03-23T23:36:50;29.83;;;10.23;;
57101;SDS011;42982;54.558;18.508;2024-03-23T23:38:14;33.72;;;10.32;;
57101;SDS011;42982;54.558;18.508;2024-03-23T23:39:38;29.25;;;10.32;;
57101;SDS011;42982;54.558;18.508;2024-03-23T23:41:04;23.83;;;9.23;;
57101;SDS011;42982;54.558;18.508;2024-03-23T23:42:31;27.42;;;9.32;;
57101;SDS011;42982;54.558;18.508;2024-03-23T23:43:54;27.52;;;8.85;;
57101;SDS011;42982;54.558;18.508;2024-03-23T23:45:19;25.92;;;8.05;;
57101;SDS011;42982;54.558;18.508;2024-03-23T23:46:39;23.38;;;8.15;;
57101;SDS011;42982;54.558;18.508;2024-03-23T23:48:02;22.30;;;7.80;;
57101;SDS011;42982;54.558;18.508;2024-03-23T23:49:28;21.23;;;7.95;;
57101;SDS011;42982;54.558;18.508;2024-03-23T23:50:48;20.35;;;7.95;;
57101;SDS011;42982;54.558;18.508;2024-03-23T23:52:17;19.90;;;7.78;;
57101;SDS011;42982;54.558;18.508;2024-03-23T23:53:40;16.25;;;7.25;;
57101;SDS011;42982;54.558;18.508;2024-03-23T23:55:03;20.67;;;6.75;;
57101;SDS011;42982;54.558;18.508;2024-03-23T23:56:28;15.15;;;6.25;;
57101;SDS011;42982;54.558;18.508;2024-03-23T23:57:53;14.52;;;6.32;;
57101;SDS011;42982;54.558;18.508;2024-03-23T23:59:17;23.15;;;6.68;;
